sensor_id;sensor_type;location;lat;lon;timestamp;pressure;altitude;pressure_sealevel;temperature;humidity
71465;BME280;59274;49.874;9.154;2023-02-04T00:01:18;101665.66;;;7.54;81.32
71465;BME280;59274;49.874;9.154;2023-02-04T00:03:43;101653.59;;;7.51;81.20
71465;BME280;59274;49.874;9.154;2023-02-04T00:06:09;101671.72;;;7.51;81.05
71465;BME280;59274;49.874;9.154;2023-02-04T00:08:36;101673.16;;;7.48;81.68
71465;BME280;59274;49.874;9.154;2023-02-04T00:11:02;101667.75;;;7.48;82.05
71465;BME280;59274;49.874;9.154;2023-02-04T00:13:28;101674.91;;;7.44;81.40
71465;BME280;59274;49.874;9.154;2023-02-04T00:15:53;101668.38;;;7.54;79.77
71465;BME280;59274;49.874;9.154;2023-02-04T00:18:19;101667.44;;;7.58;79.66
71465;BME280;59274;49.874;9.154;2023-02-04T00:20:44;101661.53;;;7.47;80.85
71465;BME280;59274;49.874;9.154;2023-02-04T00:23:10;101665.00;;;7.39;80.54
71465;BME280;59274;49.874;9.154;2023-02-04T00:25:35;101672.84;;;7.50;79.70
71465;BME280;59274;49.874;9.154;2023-02-04T00:28:01;101661.38;;;7.44;79.42
71465;BME280;59274;49.874;9.154;2023-02-04T00:30:26;101682.53;;;7.51;79.54
71465;BME280;59274;49.874;9.154;2023-02-04T00:32:52;101694.47;;;7.50;79.22
71465;BME280;59274;49.874;9.154;2023-02-04T00:35:19;101704.13;;;7.42;79.45
71465;BME280;59274;49.874;9.154;2023-02-04T00:37:45;101693.50;;;7.45;78.90
71465;BME280;59274;49.874;9.154;2023-02-04T00:40:11;101704.44;;;7.40;78.70
71465;BME280;59274;49.874;9.154;2023-02-04T00:42:37;101706.69;;;7.38;77.67
71465;BME280;59274;49.874;9.154;2023-02-04T00:45:02;101706.00;;;7.33;78.52
71465;BME280;59274;49.874;9.154;2023-02-04T00:47:28;101703.00;;;7.34;78.12
71465;BME280;59274;49.874;9.154;2023-02-04T00:49:53;101698.56;;;7.30;79.32
71465;BME280;59274;49.874;9.154;2023-02-04T00:52:19;101697.28;;;7.36;78.82
71465;BME280;59274;49.874;9.154;2023-02-04T00:54:44;101694.41;;;7.32;79.33
71465;BME280;59274;49.874;9.154;2023-02-04T00:57:10;101700.31;;;7.34;79.22
71465;BME280;59274;49.874;9.154;2023-02-04T00:59:35;101698.84;;;7.28;79.82
71465;BME280;59274;49.874;9.154;2023-02-04T01:02:01;101703.47;;;7.28;80.09
71465;BME280;59274;49.874;9.154;2023-02-04T01:04:26;101705.69;;;7.26;79.91
71465;BME280;59274;49.874;9.154;2023-02-04T01:06:52;101701.06;;;7.26;79.83
71465;BME280;59274;49.874;9.154;2023-02-04T01:09:18;101700.13;;;7.22;80.18
71465;BME280;59274;49.874;9.154;2023-02-04T01:11:43;101706.78;;;7.25;80.40
71465;BME280;59274;49.874;9.154;2023-02-04T01:14:09;101709.66;;;7.28;79.63
71465;BME280;59274;49.874;9.154;2023-02-04T01:16:34;101717.78;;;7.28;80.00
71465;BME280;59274;49.874;9.154;2023-02-04T01:19:00;101718.38;;;7.25;80.44
71465;BME280;59274;49.874;9.154;2023-02-04T01:21:25;101720.28;;;7.16;81.06
71465;BME280;59274;49.874;9.154;2023-02-04T01:23:51;101726.94;;;7.10;80.95
71465;BME280;59274;49.874;9.154;2023-02-04T01:26:19;101722.63;;;7.09;80.72
71465;BME280;59274;49.874;9.154;2023-02-04T01:28:45;101732.50;;;7.14;80.55
71465;BME280;59274;49.874;9.154;2023-02-04T01:31:11;101728.78;;;7.01;81.41
71465;BME280;59274;49.874;9.154;2023-02-04T01:33:39;101747.88;;;7.04;81.26
71465;BME280;59274;49.874;9.154;2023-02-04T01:36:05;101777.13;;;7.11;80.14
71465;BME280;59274;49.874;9.154;2023-02-04T01:38:30;101747.75;;;7.18;79.10
71465;BME280;59274;49.874;9.154;2023-02-04T01:40:56;101747.91;;;7.13;79.61
71465;BME280;59274;49.874;9.154;2023-02-04T01:43:22;101740.09;;;7.12;80.58
71465;BME280;59274;49.874;9.154;2023-02-04T01:45:49;101742.81;;;7.12;80.52
71465;BME280;59274;49.874;9.154;2023-02-04T01:48:16;101741.06;;;7.07;80.60
71465;BME280;59274;49.874;9.154;2023-02-04T01:51:03;101751.56;;;7.08;80.54
71465;BME280;59274;49.874;9.154;2023-02-04T01:53:30;101768.50;;;7.00;80.56
71465;BME280;59274;49.874;9.154;2023-02-04T01:55:57;101754.81;;;6.97;80.59
71465;BME280;59274;49.874;9.154;2023-02-04T01:58:22;101762.75;;;6.93;80.69
71465;BME280;59274;49.874;9.154;2023-02-04T02:00:48;101765.53;;;6.80;81.24
71465;BME280;59274;49.874;9.154;2023-02-04T02:03:14;101779.66;;;6.77;81.61
71465;BME280;59274;49.874;9.154;2023-02-04T02:05:49;101773.28;;;6.73;81.97
71465;BME280;59274;49.874;9.154;2023-02-04T02:08:16;101770.34;;;6.60;82.84
71465;BME280;59274;49.874;9.154;2023-02-04T02:10:44;101773.16;;;6.55;82.84
71465;BME280;59274;49.874;9.154;2023-02-04T02:13:12;101789.28;;;6.47;83.23
71465;BME280;59274;49.874;9.154;2023-02-04T02:15:40;101788.81;;;6.45;83.12
71465;BME280;59274;49.874;9.154;2023-02-04T02:18:06;101785.81;;;6.46;82.52
71465;BME280;59274;49.874;9.154;2023-02-04T02:20:32;101779.78;;;6.49;82.65
71465;BME280;59274;49.874;9.154;2023-02-04T02:26:12;101777.38;;;6.48;83.23
71465;BME280;59274;49.874;9.154;2023-02-04T02:28:38;101781.19;;;6.47;82.94
71465;BME280;59274;49.874;9.154;2023-02-04T02:31:04;101778.31;;;6.43;83.59
71465;BME280;59274;49.874;9.154;2023-02-04T02:33:29;101772.63;;;6.45;83.22
71465;BME280;59274;49.874;9.154;2023-02-04T02:35:55;101781.44;;;6.37;83.73
71465;BME280;59274;49.874;9.154;2023-02-04T02:38:20;101786.19;;;6.40;83.65
71465;BME280;59274;49.874;9.154;2023-02-04T02:40:47;101787.19;;;6.44;83.00
71465;BME280;59274;49.874;9.154;2023-02-04T02:43:19;101791.59;;;6.40;83.51
71465;BME280;59274;49.874;9.154;2023-02-04T02:45:46;101794.91;;;6.37;83.21
71465;BME280;59274;49.874;9.154;2023-02-04T02:48:12;101793.91;;;6.33;83.38
71465;BME280;59274;49.874;9.154;2023-02-04T02:50:38;101793.63;;;6.34;82.81
71465;BME280;59274;49.874;9.154;2023-02-04T02:53:10;101785.66;;;6.29;82.86
71465;BME280;59274;49.874;9.154;2023-02-04T02:55:36;101796.38;;;6.20;83.17
71465;BME280;59274;49.874;9.154;2023-02-04T02:58:14;101792.28;;;6.23;82.65
71465;BME280;59274;49.874;9.154;2023-02-04T03:00:40;101804.88;;;6.14;83.02
71465;BME280;59274;49.874;9.154;2023-02-04T03:03:13;101812.03;;;6.18;83.00
71465;BME280;59274;49.874;9.154;2023-02-04T03:05:44;101811.78;;;6.06;83.85
71465;BME280;59274;49.874;9.154;2023-02-04T03:08:13;101813.19;;;6.04;83.99
71465;BME280;59274;49.874;9.154;2023-02-04T03:10:40;101818.28;;;5.92;84.84
71465;BME280;59274;49.874;9.154;2023-02-04T03:13:05;101828.59;;;5.89;84.93
71465;BME280;59274;49.874;9.154;2023-02-04T03:15:31;101835.56;;;5.90;85.40
71465;BME280;59274;49.874;9.154;2023-02-04T03:17:58;101842.94;;;5.85;85.71
71465;BME280;59274;49.874;9.154;2023-02-04T03:20:26;101852.44;;;5.82;85.89
71465;BME280;59274;49.874;9.154;2023-02-04T03:22:53;101844.28;;;5.87;85.79
71465;BME280;59274;49.874;9.154;2023-02-04T03:25:18;101845.75;;;5.94;85.09
71465;BME280;59274;49.874;9.154;2023-02-04T03:27:47;101849.94;;;6.00;84.66
71465;BME280;59274;49.874;9.154;2023-02-04T03:30:13;101850.25;;;5.98;85.08
71465;BME280;59274;49.874;9.154;2023-02-04T03:32:38;101848.47;;;5.94;85.12
71465;BME280;59274;49.874;9.154;2023-02-04T03:35:05;101864.22;;;5.86;85.39
71465;BME280;59274;49.874;9.154;2023-02-04T03:37:31;101861.28;;;5.83;85.64
71465;BME280;59274;49.874;9.154;2023-02-04T03:39:56;101867.91;;;5.77;86.00
71465;BME280;59274;49.874;9.154;2023-02-04T03:42:22;101873.59;;;5.75;86.45
71465;BME280;59274;49.874;9.154;2023-02-04T03:44:49;101872.88;;;5.70;87.01
71465;BME280;59274;49.874;9.154;2023-02-04T03:47:14;101880.78;;;5.66;87.10
71465;BME280;59274;49.874;9.154;2023-02-04T03:49:39;101887.78;;;5.67;87.32
71465;BME280;59274;49.874;9.154;2023-02-04T03:52:05;101887.25;;;5.65;87.36
71465;BME280;59274;49.874;9.154;2023-02-04T03:54:30;101895.63;;;5.64;87.42
71465;BME280;59274;49.874;9.154;2023-02-04T03:56:56;101896.94;;;5.53;88.64
71465;BME280;59274;49.874;9.154;2023-02-04T03:59:21;101889.94;;;5.51;88.56
71465;BME280;59274;49.874;9.154;2023-02-04T04:01:47;101894.63;;;5.46;88.80
71465;BME280;59274;49.874;9.154;2023-02-04T04:04:12;101911.47;;;5.38;88.64
71465;BME280;59274;49.874;9.154;2023-02-04T04:06:38;101916.06;;;5.37;88.99
71465;BME280;59274;49.874;9.154;2023-02-04T04:09:03;101905.44;;;5.27;89.22
71465;BME280;59274;49.874;9.154;2023-02-04T04:11:30;101903.47;;;5.33;88.47
71465;BME280;59274;49.874;9.154;2023-02-04T04:13:56;101907.06;;;5.42;87.85
71465;BME280;59274;49.874;9.154;2023-02-04T04:16:21;101905.09;;;5.47;87.30
71465;BME280;59274;49.874;9.154;2023-02-04T04:18:47;101903.69;;;5.50;86.64
71465;BME280;59274;49.874;9.154;2023-02-04T04:21:13;101914.28;;;5.46;86.96
71465;BME280;59274;49.874;9.154;2023-02-04T04:23:38;101909.28;;;5.40;87.17
71465;BME280;59274;49.874;9.154;2023-02-04T04:26:04;101906.88;;;5.38;87.41
71465;BME280;59274;49.874;9.154;2023-02-04T04:28:29;101911.06;;;5.31;87.81
71465;BME280;59274;49.874;9.154;2023-02-04T04:30:56;101911.84;;;5.31;87.64
71465;BME280;59274;49.874;9.154;2023-02-04T04:33:21;101906.38;;;5.36;87.12
71465;BME280;59274;49.874;9.154;2023-02-04T04:35:47;101902.88;;;5.36;86.92
71465;BME280;59274;49.874;9.154;2023-02-04T04:38:12;101910.53;;;5.29;87.32
71465;BME280;59274;49.874;9.154;2023-02-04T04:40:37;101913.84;;;5.26;86.59
71465;BME280;59274;49.874;9.154;2023-02-04T04:43:03;101916.94;;;5.33;86.27
71465;BME280;59274;49.874;9.154;2023-02-04T04:45:29;101913.34;;;5.37;85.68
71465;BME280;59274;49.874;9.154;2023-02-04T04:47:54;101913.47;;;5.32;85.85
71465;BME280;59274;49.874;9.154;2023-02-04T04:50:20;101909.66;;;5.33;85.81
71465;BME280;59274;49.874;9.154;2023-02-04T04:52:45;101900.19;;;5.36;85.59
71465;BME280;59274;49.874;9.154;2023-02-04T04:55:11;101911.56;;;5.33;85.94
71465;BME280;59274;49.874;9.154;2023-02-04T04:57:37;101912.72;;;5.27;86.07
71465;BME280;59274;49.874;9.154;2023-02-04T05:00:04;101919.81;;;5.23;86.25
71465;BME280;59274;49.874;9.154;2023-02-04T05:02:30;101921.03;;;5.30;85.88
71465;BME280;59274;49.874;9.154;2023-02-04T05:04:56;101941.06;;;5.24;86.26
71465;BME280;59274;49.874;9.154;2023-02-04T05:07:21;101938.44;;;5.19;86.32
71465;BME280;59274;49.874;9.154;2023-02-04T05:09:47;101942.00;;;5.15;86.80
71465;BME280;59274;49.874;9.154;2023-02-04T05:12:12;101938.75;;;5.18;86.46
71465;BME280;59274;49.874;9.154;2023-02-04T05:14:38;101951.22;;;5.27;85.86
71465;BME280;59274;49.874;9.154;2023-02-04T05:17:03;101956.41;;;5.24;85.99
71465;BME280;59274;49.874;9.154;2023-02-04T05:19:29;101949.06;;;5.29;84.89
71465;BME280;59274;49.874;9.154;2023-02-04T05:21:54;101946.66;;;5.28;85.31
71465;BME280;59274;49.874;9.154;2023-02-04T05:24:21;101939.84;;;5.17;85.64
71465;BME280;59274;49.874;9.154;2023-02-04T05:26:47;101953.25;;;5.03;86.77
71465;BME280;59274;49.874;9.154;2023-02-04T05:29:12;101951.19;;;4.95;87.85
71465;BME280;59274;49.874;9.154;2023-02-04T05:31:38;101954.19;;;4.93;88.20
71465;BME280;59274;49.874;9.154;2023-02-04T05:34:03;101952.78;;;4.77;89.21
71465;BME280;59274;49.874;9.154;2023-02-04T05:36:29;101958.81;;;4.69;90.07
71465;BME280;59274;49.874;9.154;2023-02-04T05:38:55;101955.75;;;4.57;90.70
71465;BME280;59274;49.874;9.154;2023-02-04T05:41:20;101960.56;;;4.60;90.29
71465;BME280;59274;49.874;9.154;2023-02-04T05:43:46;101953.00;;;4.62;90.94
71465;BME280;59274;49.874;9.154;2023-02-04T05:46:11;101960.41;;;4.70;90.50
71465;BME280;59274;49.874;9.154;2023-02-04T05:48:37;101955.63;;;4.67;92.08
71465;BME280;59274;49.874;9.154;2023-02-04T05:51:04;101958.69;;;4.60;91.68
71465;BME280;59274;49.874;9.154;2023-02-04T05:53:30;101956.00;;;4.60;91.78
71465;BME280;59274;49.874;9.154;2023-02-04T05:55:55;101959.69;;;4.64;91.77
71465;BME280;59274;49.874;9.154;2023-02-04T05:58:21;101966.81;;;4.55;92.09
71465;BME280;59274;49.874;9.154;2023-02-04T06:00:46;101973.28;;;4.54;92.26
71465;BME280;59274;49.874;9.154;2023-02-04T06:03:12;101983.25;;;4.54;92.46
71465;BME280;59274;49.874;9.154;2023-02-04T06:05:41;101978.97;;;4.53;92.49
71465;BME280;59274;49.874;9.154;2023-02-04T06:08:08;101983.28;;;4.49;93.15
71465;BME280;59274;49.874;9.154;2023-02-04T06:10:35;101982.94;;;4.55;92.85
71465;BME280;59274;49.874;9.154;2023-02-04T06:13:02;101975.84;;;4.64;92.15
71465;BME280;59274;49.874;9.154;2023-02-04T06:15:27;101975.84;;;4.64;92.55
71465;BME280;59274;49.874;9.154;2023-02-04T06:17:52;101988.41;;;4.69;91.53
71465;BME280;59274;49.874;9.154;2023-02-04T06:20:18;101982.47;;;4.72;92.74
71465;BME280;59274;49.874;9.154;2023-02-04T06:22:44;101981.38;;;4.73;91.50
71465;BME280;59274;49.874;9.154;2023-02-04T06:25:09;101986.75;;;4.73;91.47
71465;BME280;59274;49.874;9.154;2023-02-04T06:27:35;101995.00;;;4.82;92.65
71465;BME280;59274;49.874;9.154;2023-02-04T06:30:00;101996.53;;;4.88;93.58
71465;BME280;59274;49.874;9.154;2023-02-04T06:32:26;101998.69;;;4.86;94.33
71465;BME280;59274;49.874;9.154;2023-02-04T06:34:51;101995.81;;;4.82;93.67
71465;BME280;59274;49.874;9.154;2023-02-04T06:37:17;102008.16;;;4.83;93.43
71465;BME280;59274;49.874;9.154;2023-02-04T06:39:42;102021.69;;;4.78;94.28
71465;BME280;59274;49.874;9.154;2023-02-04T06:42:08;102032.69;;;4.82;94.61
71465;BME280;59274;49.874;9.154;2023-02-04T06:44:33;102036.22;;;4.77;94.62
71465;BME280;59274;49.874;9.154;2023-02-04T06:46:59;102038.78;;;4.68;95.12
71465;BME280;59274;49.874;9.154;2023-02-04T06:49:25;102039.69;;;4.59;95.73
71465;BME280;59274;49.874;9.154;2023-02-04T06:51:50;102042.31;;;4.64;95.73
71465;BME280;59274;49.874;9.154;2023-02-04T06:54:16;102057.88;;;4.67;95.48
71465;BME280;59274;49.874;9.154;2023-02-04T06:56:43;102051.25;;;4.59;94.99
71465;BME280;59274;49.874;9.154;2023-02-04T06:59:09;102055.59;;;4.55;95.66
71465;BME280;59274;49.874;9.154;2023-02-04T07:01:35;102071.16;;;4.58;96.00
71465;BME280;59274;49.874;9.154;2023-02-04T07:04:01;102065.84;;;4.53;96.32
71465;BME280;59274;49.874;9.154;2023-02-04T07:06:27;102062.38;;;4.48;96.78
71465;BME280;59274;49.874;9.154;2023-02-04T07:08:53;102075.19;;;4.61;97.13
71465;BME280;59274;49.874;9.154;2023-02-04T07:11:18;102076.81;;;4.57;97.28
71465;BME280;59274;49.874;9.154;2023-02-04T07:13:44;102083.44;;;4.41;98.11
71465;BME280;59274;49.874;9.154;2023-02-04T07:16:09;102100.06;;;4.48;98.20
71465;BME280;59274;49.874;9.154;2023-02-04T07:18:34;102094.78;;;4.38;98.35
71465;BME280;59274;49.874;9.154;2023-02-04T07:21:00;102100.31;;;4.51;98.75
71465;BME280;59274;49.874;9.154;2023-02-04T07:23:26;102097.53;;;4.56;98.29
71465;BME280;59274;49.874;9.154;2023-02-04T07:25:53;102097.16;;;4.68;97.37
71465;BME280;59274;49.874;9.154;2023-02-04T07:28:20;102101.56;;;4.59;97.35
71465;BME280;59274;49.874;9.154;2023-02-04T07:30:46;102107.50;;;4.56;96.91
71465;BME280;59274;49.874;9.154;2023-02-04T07:33:11;102104.19;;;4.64;97.18
71465;BME280;59274;49.874;9.154;2023-02-04T07:35:37;102106.34;;;4.62;96.38
71465;BME280;59274;49.874;9.154;2023-02-04T07:38:03;102105.88;;;4.60;96.82
71465;BME280;59274;49.874;9.154;2023-02-04T07:40:29;102114.41;;;4.67;96.67
71465;BME280;59274;49.874;9.154;2023-02-04T07:42:55;102124.00;;;4.73;97.76
71465;BME280;59274;49.874;9.154;2023-02-04T07:45:20;102126.72;;;4.73;97.35
71465;BME280;59274;49.874;9.154;2023-02-04T07:47:46;102136.94;;;4.71;97.80
71465;BME280;59274;49.874;9.154;2023-02-04T07:50:12;102134.19;;;4.76;98.58
71465;BME280;59274;49.874;9.154;2023-02-04T07:52:37;102152.47;;;4.79;98.93
71465;BME280;59274;49.874;9.154;2023-02-04T07:55:04;102149.22;;;4.82;99.98
71465;BME280;59274;49.874;9.154;2023-02-04T07:57:29;102157.97;;;4.93;97.63
71465;BME280;59274;49.874;9.154;2023-02-04T07:59:55;102153.31;;;4.98;98.02
71465;BME280;59274;49.874;9.154;2023-02-04T08:02:20;102157.56;;;5.04;98.53
71465;BME280;59274;49.874;9.154;2023-02-04T08:04:46;102156.94;;;5.12;98.22
71465;BME280;59274;49.874;9.154;2023-02-04T08:07:11;102160.56;;;5.03;97.60
71465;BME280;59274;49.874;9.154;2023-02-04T08:09:37;102162.94;;;5.04;98.01
71465;BME280;59274;49.874;9.154;2023-02-04T08:12:03;102164.63;;;5.00;98.45
71465;BME280;59274;49.874;9.154;2023-02-04T08:14:28;102159.13;;;5.10;99.24
71465;BME280;59274;49.874;9.154;2023-02-04T08:16:54;102173.09;;;5.12;98.02
71465;BME280;59274;49.874;9.154;2023-02-04T08:19:19;102173.69;;;5.09;98.62
71465;BME280;59274;49.874;9.154;2023-02-04T08:21:46;102172.97;;;5.23;97.37
71465;BME280;59274;49.874;9.154;2023-02-04T08:24:12;102180.25;;;5.22;97.80
71465;BME280;59274;49.874;9.154;2023-02-04T08:26:39;102187.69;;;5.30;97.74
71465;BME280;59274;49.874;9.154;2023-02-04T08:29:04;102185.38;;;5.42;97.86
71465;BME280;59274;49.874;9.154;2023-02-04T08:31:30;102195.31;;;5.47;98.65
71465;BME280;59274;49.874;9.154;2023-02-04T08:33:56;102197.06;;;5.57;97.62
71465;BME280;59274;49.874;9.154;2023-02-04T08:36:21;102201.63;;;5.56;96.84
71465;BME280;59274;49.874;9.154;2023-02-04T08:38:46;102200.63;;;5.52;97.66
71465;BME280;59274;49.874;9.154;2023-02-04T08:41:12;102214.09;;;5.52;95.50
71465;BME280;59274;49.874;9.154;2023-02-04T08:43:37;102214.09;;;5.52;94.74
71465;BME280;59274;49.874;9.154;2023-02-04T08:46:03;102224.72;;;5.43;94.36
71465;BME280;59274;49.874;9.154;2023-02-04T08:48:29;102229.00;;;5.44;93.09
71465;BME280;59274;49.874;9.154;2023-02-04T08:50:55;102234.91;;;5.46;93.65
71465;BME280;59274;49.874;9.154;2023-02-04T08:53:20;102242.41;;;5.49;92.92
71465;BME280;59274;49.874;9.154;2023-02-04T08:55:45;102235.72;;;5.47;92.31
71465;BME280;59274;49.874;9.154;2023-02-04T08:58:11;102241.25;;;5.56;92.81
71465;BME280;59274;49.874;9.154;2023-02-04T09:00:36;102244.34;;;5.68;92.07
71465;BME280;59274;49.874;9.154;2023-02-04T09:03:02;102253.19;;;5.73;93.67
71465;BME280;59274;49.874;9.154;2023-02-04T09:05:28;102247.19;;;5.76;93.83
71465;BME280;59274;49.874;9.154;2023-02-04T09:07:59;102249.38;;;5.74;93.65
71465;BME280;59274;49.874;9.154;2023-02-04T09:10:24;102254.78;;;5.74;92.77
71465;BME280;59274;49.874;9.154;2023-02-04T09:12:50;102262.44;;;5.86;91.21
71465;BME280;59274;49.874;9.154;2023-02-04T09:15:21;102260.88;;;6.04;91.16
71465;BME280;59274;49.874;9.154;2023-02-04T09:17:47;102271.22;;;6.15;90.29
71465;BME280;59274;49.874;9.154;2023-02-04T09:20:13;102263.50;;;6.27;89.49
71465;BME280;59274;49.874;9.154;2023-02-04T09:22:38;102262.25;;;6.39;89.34
71465;BME280;59274;49.874;9.154;2023-02-04T09:25:04;102264.34;;;6.42;90.50
71465;BME280;59274;49.874;9.154;2023-02-04T09:27:30;102258.56;;;6.48;89.27
71465;BME280;59274;49.874;9.154;2023-02-04T09:29:55;102261.81;;;6.64;88.01
71465;BME280;59274;49.874;9.154;2023-02-04T09:32:21;102256.66;;;6.67;88.17
71465;BME280;59274;49.874;9.154;2023-02-04T09:34:46;102258.06;;;6.79;87.72
71465;BME280;59274;49.874;9.154;2023-02-04T09:37:12;102258.06;;;6.79;86.11
71465;BME280;59274;49.874;9.154;2023-02-04T09:39:37;102268.28;;;6.82;86.11
71465;BME280;59274;49.874;9.154;2023-02-04T09:42:03;102275.38;;;6.78;85.61
71465;BME280;59274;49.874;9.154;2023-02-04T09:44:28;102283.69;;;6.81;85.79
71465;BME280;59274;49.874;9.154;2023-02-04T09:46:58;102284.91;;;6.89;85.25
71465;BME280;59274;49.874;9.154;2023-02-04T09:49:26;102288.34;;;7.08;84.72
71465;BME280;59274;49.874;9.154;2023-02-04T09:51:53;102277.56;;;7.22;84.21
71465;BME280;59274;49.874;9.154;2023-02-04T09:54:21;102287.28;;;7.23;83.22
71465;BME280;59274;49.874;9.154;2023-02-04T09:56:46;102291.16;;;7.17;82.67
71465;BME280;59274;49.874;9.154;2023-02-04T09:59:22;102292.88;;;7.26;82.41
71465;BME280;59274;49.874;9.154;2023-02-04T10:01:58;102290.16;;;7.13;82.91
71465;BME280;59274;49.874;9.154;2023-02-04T10:04:24;102290.13;;;6.99;83.38
71465;BME280;59274;49.874;9.154;2023-02-04T10:06:49;102294.84;;;7.07;83.76
71465;BME280;59274;49.874;9.154;2023-02-04T10:09:15;102298.38;;;7.21;82.45
71465;BME280;59274;49.874;9.154;2023-02-04T10:11:43;102301.88;;;7.35;82.21
71465;BME280;59274;49.874;9.154;2023-02-04T10:14:20;102314.19;;;7.28;81.15
71465;BME280;59274;49.874;9.154;2023-02-04T10:16:54;102313.38;;;7.27;81.56
71465;BME280;59274;49.874;9.154;2023-02-04T10:19:20;102317.28;;;7.21;83.08
71465;BME280;59274;49.874;9.154;2023-02-04T10:21:46;102317.19;;;7.40;83.69
71465;BME280;59274;49.874;9.154;2023-02-04T10:24:19;102314.50;;;7.54;82.12
71465;BME280;59274;49.874;9.154;2023-02-04T10:26:46;102304.00;;;7.66;81.18
71465;BME280;59274;49.874;9.154;2023-02-04T10:29:17;102305.25;;;8.09;79.76
71465;BME280;59274;49.874;9.154;2023-02-04T10:31:45;102302.69;;;8.26;79.09
71465;BME280;59274;49.874;9.154;2023-02-04T10:36:44;102304.84;;;8.52;78.78
71465;BME280;59274;49.874;9.154;2023-02-04T10:41:48;102311.72;;;8.36;78.96
71465;BME280;59274;49.874;9.154;2023-02-04T10:44:17;102313.72;;;8.30;76.11
71465;BME280;59274;49.874;9.154;2023-02-04T10:46:43;102317.94;;;8.22;75.65
71465;BME280;59274;49.874;9.154;2023-02-04T10:49:20;102316.34;;;8.21;74.16
71465;BME280;59274;49.874;9.154;2023-02-04T10:51:47;102313.69;;;8.44;73.69
71465;BME280;59274;49.874;9.154;2023-02-04T10:54:13;102309.31;;;8.34;73.89
71465;BME280;59274;49.874;9.154;2023-02-04T10:59:42;102307.41;;;7.58;77.30
71465;BME280;59274;49.874;9.154;2023-02-04T11:02:39;102311.41;;;7.74;76.50
71465;BME280;59274;49.874;9.154;2023-02-04T11:05:13;102302.81;;;8.21;76.51
71465;BME280;59274;49.874;9.154;2023-02-04T11:07:39;102301.09;;;8.25;75.78
71465;BME280;59274;49.874;9.154;2023-02-04T11:10:05;102305.81;;;8.34;75.20
71465;BME280;59274;49.874;9.154;2023-02-04T11:15:06;102301.94;;;8.48;72.75
71465;BME280;59274;49.874;9.154;2023-02-04T11:18:02;102314.31;;;8.63;73.54
71465;BME280;59274;49.874;9.154;2023-02-04T11:20:33;102307.66;;;8.69;70.01
71465;BME280;59274;49.874;9.154;2023-02-04T11:26:04;102310.66;;;9.12;72.62
71465;BME280;59274;49.874;9.154;2023-02-04T11:28:44;102307.53;;;8.74;73.87
71465;BME280;59274;49.874;9.154;2023-02-04T11:39:34;102318.00;;;8.67;73.55
71465;BME280;59274;49.874;9.154;2023-02-04T11:42:00;102320.53;;;8.63;74.60
71465;BME280;59274;49.874;9.154;2023-02-04T11:44:26;102328.53;;;8.46;74.21
71465;BME280;59274;49.874;9.154;2023-02-04T11:46:53;102321.34;;;8.28;75.10
71465;BME280;59274;49.874;9.154;2023-02-04T11:49:24;102326.16;;;8.17;74.61
71465;BME280;59274;49.874;9.154;2023-02-04T11:51:50;102328.19;;;8.12;74.95
71465;BME280;59274;49.874;9.154;2023-02-04T11:54:26;102327.22;;;7.94;75.67
71465;BME280;59274;49.874;9.154;2023-02-04T11:56:52;102323.22;;;7.92;75.50
71465;BME280;59274;49.874;9.154;2023-02-04T11:59:18;102324.69;;;7.98;75.03
71465;BME280;59274;49.874;9.154;2023-02-04T12:01:45;102327.31;;;7.89;76.07
71465;BME280;59274;49.874;9.154;2023-02-04T12:04:22;102326.13;;;7.95;75.76
71465;BME280;59274;49.874;9.154;2023-02-04T12:07:02;102330.03;;;8.03;75.53
71465;BME280;59274;49.874;9.154;2023-02-04T12:09:30;102327.09;;;8.13;75.37
71465;BME280;59274;49.874;9.154;2023-02-04T12:11:57;102321.00;;;7.94;75.25
71465;BME280;59274;49.874;9.154;2023-02-04T12:14:31;102325.94;;;7.78;75.67
71465;BME280;59274;49.874;9.154;2023-02-04T12:16:57;102322.22;;;7.74;76.43
71465;BME280;59274;49.874;9.154;2023-02-04T12:19:23;102331.22;;;7.83;76.12
71465;BME280;59274;49.874;9.154;2023-02-04T12:21:49;102336.63;;;7.83;75.80
71465;BME280;59274;49.874;9.154;2023-02-04T12:24:14;102329.25;;;7.89;75.92
71465;BME280;59274;49.874;9.154;2023-02-04T12:26:39;102325.63;;;7.93;74.92
71465;BME280;59274;49.874;9.154;2023-02-04T12:29:05;102329.81;;;7.99;75.39
71465;BME280;59274;49.874;9.154;2023-02-04T12:31:31;102334.81;;;8.06;74.60
71465;BME280;59274;49.874;9.154;2023-02-04T12:33:58;102331.53;;;7.95;74.24
71465;BME280;59274;49.874;9.154;2023-02-04T12:36:25;102341.53;;;8.08;74.50
71465;BME280;59274;49.874;9.154;2023-02-04T12:38:54;102341.03;;;7.93;74.43
71465;BME280;59274;49.874;9.154;2023-02-04T12:41:23;102341.22;;;7.96;74.17
71465;BME280;59274;49.874;9.154;2023-02-04T12:43:48;102337.22;;;8.07;74.78
71465;BME280;59274;49.874;9.154;2023-02-04T12:46:15;102334.38;;;8.26;72.06
71465;BME280;59274;49.874;9.154;2023-02-04T12:48:40;102338.78;;;8.36;70.50
71465;BME280;59274;49.874;9.154;2023-02-04T12:51:06;102341.63;;;8.31;70.44
71465;BME280;59274;49.874;9.154;2023-02-04T12:53:33;102341.38;;;8.41;70.20
71465;BME280;59274;49.874;9.154;2023-02-04T12:55:58;102342.19;;;8.41;70.51
71465;BME280;59274;49.874;9.154;2023-02-04T12:58:24;102342.00;;;8.60;72.65
71465;BME280;59274;49.874;9.154;2023-02-04T13:00:50;102334.75;;;8.69;70.90
71465;BME280;59274;49.874;9.154;2023-02-04T13:03:15;102340.53;;;8.76;70.78
71465;BME280;59274;49.874;9.154;2023-02-04T13:05:41;102334.81;;;8.78;70.01
71465;BME280;59274;49.874;9.154;2023-02-04T13:08:07;102340.91;;;8.61;70.12
71465;BME280;59274;49.874;9.154;2023-02-04T13:10:32;102335.38;;;8.66;69.84
71465;BME280;59274;49.874;9.154;2023-02-04T13:12:58;102341.78;;;8.70;72.22
71465;BME280;59274;49.874;9.154;2023-02-04T13:15:24;102341.66;;;8.75;72.81
71465;BME280;59274;49.874;9.154;2023-02-04T13:17:50;102342.66;;;8.79;71.89
71465;BME280;59274;49.874;9.154;2023-02-04T13:20:16;102341.84;;;8.79;73.79
71465;BME280;59274;49.874;9.154;2023-02-04T13:22:42;102344.34;;;8.75;73.75